Time,TemperatureF,DewpointF,PressureIn,WindDirection,WindDirectionDegrees,WindSpeedMPH,WindSpeedGustMPH,Humidity,HourlyPrecipIn,Conditions,Clouds,dailyrainin,SoftwareType,DateUTC
2013-03-25 00:08:00,-0.2,-4.0,30.59,SW,230,0.0,0.0,83,0.00,,,0.00,weatherlink.com 1.10,2013-03-25 06:08:00,
2013-03-25 00:24:00,-0.9,-5.0,30.59,SW,228,0.0,0.0,83,0.00,,,0.00,weatherlink.com 1.10,2013-03-25 06:24:00,
2013-03-25 00:39:00,-1.4,-6.0,30.59,SW,226,0.0,0.0,82,0.00,,,0.00,weatherlink.com 1.10,2013-03-25 06:39:00,
2013-03-25 00:54:00,-1.0,-5.0,30.59,SW,231,0.0,0.0,83,0.00,,,0.00,weatherlink.com 1.10,2013-03-25 06:54:00,
2013-03-25 01:09:00,-1.1,-5.0,30.59,SW,234,0.0,0.0,83,0.00,,,0.00,weatherlink.com 1.10,2013-03-25 07:09:00,
2013-03-25 01:24:00,-2.0,-6.0,30.58,WSW,246,0.0,0.0,83,0.00,,,0.00,weatherlink.com 1.10,2013-03-25 07:24:00,
2013-03-25 01:39:00,-2.6,-7.0,30.58,SW,232,0.0,0.0,82,0.00,,,0.00,weatherlink.com 1.10,2013-03-25 07:39:00,
2013-03-25 01:54:00,-2.7,-7.0,30.58,WSW,244,0.0,0.0,83,0.00,,,0.00,weatherlink.com 1.10,2013-03-25 07:54:00,
2013-03-25 02:09:00,-2.1,-6.0,30.57,SW,220,0.0,0.0,84,0.00,,,0.00,weatherlink.com 1.10,2013-03-25 08:09:00,
2013-03-25 02:24:00,-1.6,-6.0,30.57,SW,224,0.0,0.0,83,0.00,,,0.00,weatherlink.com 1.10,2013-03-25 08:24:00,
2013-03-25 02:39:00,-1.6,-5.0,30.57,WSW,240,0.0,0.0,85,0.00,,,0.00,weatherlink.com 1.10,2013-03-25 08:39:00,
2013-03-25 02:54:00,-1.4,-5.0,30.56,SW,234,0.0,0.0,84,0.00,,,0.00,weatherlink.com 1.10,2013-03-25 08:54:00,
2013-03-25 03:09:00,-1.8,-6.0,30.56,SW,228,0.0,0.0,83,0.00,,,0.00,weatherlink.com 1.10,2013-03-25 09:09:00,
2013-03-25 03:24:00,-3.1,-8.0,30.56,SW,232,0.0,0.0,81,0.00,,,0.00,weatherlink.com 1.10,2013-03-25 09:24:00,
2013-03-25 03:39:00,-2.3,-6.0,30.56,SW,224,0.0,0.0,84,0.00,,,0.00,weatherlink.com 1.10,2013-03-25 09:39:00,
2013-03-25 03:55:00,-2.1,-6.0,30.55,SW,214,0.0,0.0,85,0.00,,,0.00,weatherlink.com 1.10,2013-03-25 09:55:00,
2013-03-25 04:10:00,-3.0,-7.0,30.55,SW,229,0.0,0.0,82,0.00,,,0.00,weatherlink.com 1.10,2013-03-25 10:10:00,
2013-03-25 04:25:00,-3.3,-7.0,30.55,SW,232,0.0,0.0,83,0.00,,,0.00,weatherlink.com 1.10,2013-03-25 10:25:00,
2013-03-25 04:40:00,-2.3,-6.0,30.55,SW,231,0.0,0.0,84,0.00,,,0.00,weatherlink.com 1.10,2013-03-25 10:40:00,
2013-03-25 04:55:00,-1.0,-4.0,30.55,SW,236,0.0,0.0,85,0.00,,,0.00,weatherlink.com 1.10,2013-03-25 10:55:00,
2013-03-25 05:10:00,-3.0,-7.0,30.56,SW,224,0.0,0.0,81,0.00,,,0.00,weatherlink.com 1.10,2013-03-25 11:10:00,
2013-03-25 05:25:00,-4.8,-9.0,30.55,SW,229,0.0,0.0,82,0.00,,,0.00,weatherlink.com 1.10,2013-03-25 11:25:00,
2013-03-25 05:40:00,-5.1,-9.0,30.56,SW,224,0.0,0.0,83,0.00,,,0.00,weatherlink.com 1.10,2013-03-25 11:40:00,
2013-03-25 05:55:00,-5.7,-10.0,30.57,SW,226,0.0,0.0,81,0.00,,,0.00,weatherlink.com 1.10,2013-03-25 11:55:00,
2013-03-25 06:11:00,-6.6,-10.0,30.57,SW,231,0.0,0.0,83,0.00,,,0.00,weatherlink.com 1.10,2013-03-25 12:11:00,
2013-03-25 06:25:00,-7.1,-11.0,30.57,SW,236,0.0,0.0,81,0.00,,,0.00,weatherlink.com 1.10,2013-03-25 12:25:00,
2013-03-25 06:40:00,-7.0,-11.0,30.57,SW,223,0.0,0.0,83,0.00,,,0.00,weatherlink.com 1.10,2013-03-25 12:40:00,
2013-03-25 06:55:00,-6.6,-10.0,30.58,WSW,239,0.0,0.0,83,0.00,,,0.00,weatherlink.com 1.10,2013-03-25 12:55:00,
2013-03-25 07:10:00,-6.0,-10.0,30.57,SW,224,0.0,0.0,84,0.00,,,0.00,weatherlink.com 1.10,2013-03-25 13:10:00,
2013-03-25 07:26:00,-6.3,-10.0,30.58,SW,236,0.0,0.0,84,0.00,,,0.00,weatherlink.com 1.10,2013-03-25 13:26:00,
2013-03-25 07:41:00,-6.0,-9.0,30.58,SW,231,0.0,0.0,85,0.00,,,0.00,weatherlink.com 1.10,2013-03-25 13:41:00,
2013-03-25 08:11:00,-2.6,-5.0,30.58,WSW,251,0.0,0.0,89,0.00,,,0.00,weatherlink.com 1.10,2013-03-25 14:11:00,
2013-03-25 08:26:00,1.3,-2.0,30.59,WSW,238,0.0,0.0,86,0.00,,,0.00,weatherlink.com 1.10,2013-03-25 14:26:00,
2013-03-25 08:41:00,5.8,0.0,30.59,SW,222,0.0,0.0,77,0.00,,,0.00,weatherlink.com 1.10,2013-03-25 14:41:00,
2013-03-25 09:11:00,12.9,-1.0,30.60,West,263,0.0,0.0,53,0.00,,,0.00,weatherlink.com 1.10,2013-03-25 15:11:00,
2013-03-25 09:26:00,15.4,-1.0,30.60,SSW,197,0.0,0.0,48,0.00,,,0.00,weatherlink.com 1.10,2013-03-25 15:26:00,
2013-03-25 09:41:00,18.9,-2.0,30.60,SSW,206,0.0,0.0,40,0.00,,,0.00,weatherlink.com 1.10,2013-03-25 15:41:00,
2013-03-25 09:56:00,21.2,-3.0,30.60,SSW,207,0.0,0.0,35,0.00,,,0.00,weatherlink.com 1.10,2013-03-25 15:56:00,
2013-03-25 10:11:00,22.1,-3.0,30.60,NW,309,0.0,0.0,33,0.00,,,0.00,weatherlink.com 1.10,2013-03-25 16:11:00,
2013-03-25 10:27:00,22.6,-4.0,30.59,WNW,298,0.0,0.0,31,0.00,,,0.00,weatherlink.com 1.10,2013-03-25 16:27:00,
2013-03-25 10:42:00,23.1,-2.0,30.59,West,274,0.0,0.0,34,0.00,,,0.00,weatherlink.com 1.10,2013-03-25 16:42:00,
2013-03-25 10:57:00,24.4,-2.0,30.59,WSW,252,0.0,0.0,31,0.00,,,0.00,weatherlink.com 1.10,2013-03-25 16:57:00,
2013-03-25 11:12:00,25.4,-3.0,30.59,West,271,0.0,0.0,29,0.00,,,0.00,weatherlink.com 1.10,2013-03-25 17:12:00,
2013-03-25 11:27:00,26.6,1.0,30.59,West,264,0.0,0.0,33,0.00,,,0.00,weatherlink.com 1.10,2013-03-25 17:27:00,
2013-03-25 11:42:00,26.4,-3.0,30.58,West,272,0.0,0.0,28,0.00,,,0.00,weatherlink.com 1.10,2013-03-25 17:42:00,
2013-03-25 11:57:00,27.0,0.0,30.58,NE,41,0.0,0.0,31,0.00,,,0.00,weatherlink.com 1.10,2013-03-25 17:57:00,
2013-03-25 12:12:00,27.5,-4.0,30.58,NW,316,0.0,0.0,25,0.00,,,0.00,weatherlink.com 1.10,2013-03-25 18:12:00,
2013-03-25 12:27:00,28.7,-2.0,30.58,ENE,67,0.0,0.0,26,0.00,,,0.00,weatherlink.com 1.10,2013-03-25 18:27:00,
2013-03-25 12:42:00,28.0,-2.0,30.57,West,273,0.0,0.0,27,0.00,,,0.00,weatherlink.com 1.10,2013-03-25 18:42:00,
2013-03-25 12:57:00,28.8,-3.0,30.56,NE,40,0.0,0.0,25,0.00,,,0.00,weatherlink.com 1.10,2013-03-25 18:57:00,
2013-03-25 13:12:00,29.4,-3.0,30.56,ENE,75,0.0,0.0,25,0.00,,,0.00,weatherlink.com 1.10,2013-03-25 19:12:00,
2013-03-25 13:27:00,30.2,7.0,30.55,NNW,328,0.0,0.0,38,0.00,,,0.00,weatherlink.com 1.10,2013-03-25 19:27:00,
2013-03-25 13:42:00,28.5,8.0,30.55,ESE,112,0.0,0.0,42,0.00,,,0.00,weatherlink.com 1.10,2013-03-25 19:42:00,
2013-03-25 13:58:00,28.4,9.0,30.54,SE,135,0.0,0.0,45,0.00,,,0.00,weatherlink.com 1.10,2013-03-25 19:58:00,
2013-03-25 14:13:00,28.7,8.0,30.54,NE,56,0.0,0.0,42,0.00,,,0.00,weatherlink.com 1.10,2013-03-25 20:13:00,
2013-03-25 14:28:00,28.1,7.0,30.54,South,181,0.0,0.0,40,0.00,,,0.00,weatherlink.com 1.10,2013-03-25 20:28:00,
2013-03-25 14:43:00,29.7,14.0,30.54,South,175,0.0,0.0,52,0.00,,,0.00,weatherlink.com 1.10,2013-03-25 20:43:00,
2013-03-25 14:58:00,28.4,9.0,30.54,SSE,160,0.0,0.0,45,0.00,,,0.00,weatherlink.com 1.10,2013-03-25 20:58:00,
2013-03-25 15:13:00,26.8,12.0,30.53,ESE,111,0.0,0.0,53,0.00,,,0.00,weatherlink.com 1.10,2013-03-25 21:13:00,
2013-03-25 15:28:00,27.4,9.0,30.53,SE,141,0.0,0.0,47,0.00,,,0.00,weatherlink.com 1.10,2013-03-25 21:28:00,
2013-03-25 15:43:00,27.9,12.0,30.52,SE,132,0.0,0.0,51,0.00,,,0.00,weatherlink.com 1.10,2013-03-25 21:43:00,
2013-03-25 15:58:00,28.1,12.0,30.52,South,171,0.0,0.0,51,0.00,,,0.00,weatherlink.com 1.10,2013-03-25 21:58:00,
2013-03-25 16:13:00,28.4,12.0,30.52,SE,136,0.0,0.0,51,0.00,,,0.00,weatherlink.com 1.10,2013-03-25 22:13:00,
2013-03-25 16:28:00,27.1,11.0,30.52,SE,127,0.0,0.0,52,0.00,,,0.00,weatherlink.com 1.10,2013-03-25 22:28:00,
2013-03-25 16:43:00,26.6,11.0,30.52,SSE,168,0.0,0.0,51,0.00,,,0.00,weatherlink.com 1.10,2013-03-25 22:43:00,
2013-03-25 16:58:00,25.7,5.0,30.52,SE,124,0.0,0.0,41,0.00,,,0.00,weatherlink.com 1.10,2013-03-25 22:58:00,
2013-03-25 17:13:00,25.3,10.0,30.53,SSE,156,0.0,0.0,53,0.00,,,0.00,weatherlink.com 1.10,2013-03-25 23:13:00,
2013-03-25 17:29:00,24.2,6.0,30.52,SSE,150,0.0,0.0,45,0.00,,,0.00,weatherlink.com 1.10,2013-03-25 23:29:00,
2013-03-25 17:44:00,24.2,9.0,30.53,SE,146,0.0,0.0,52,0.00,,,0.00,weatherlink.com 1.10,2013-03-25 23:44:00,
2013-03-25 17:59:00,23.9,8.0,30.53,East,85,0.0,0.0,52,0.00,,,0.00,weatherlink.com 1.10,2013-03-25 23:59:00,
2013-03-25 18:14:00,23.2,9.0,30.53,ENE,69,0.0,0.0,55,0.00,,,0.00,weatherlink.com 1.10,2013-03-26 00:14:00,
2013-03-25 18:29:00,21.7,8.0,30.54,ENE,60,0.0,0.0,57,0.00,,,0.00,weatherlink.com 1.10,2013-03-26 00:29:00,
2013-03-25 18:44:00,19.7,8.0,30.54,East,91,0.0,0.0,60,0.00,,,0.00,weatherlink.com 1.10,2013-03-26 00:44:00,
2013-03-25 18:59:00,18.6,9.0,30.55,East,92,0.0,0.0,65,0.00,,,0.00,weatherlink.com 1.10,2013-03-26 00:59:00,
2013-03-25 19:14:00,17.0,8.0,30.55,East,92,0.0,0.0,67,0.00,,,0.00,weatherlink.com 1.10,2013-03-26 01:14:00,
2013-03-25 19:29:00,15.4,7.0,30.55,East,91,0.0,0.0,69,0.00,,,0.00,weatherlink.com 1.10,2013-03-26 01:29:00,
2013-03-25 19:44:00,13.6,6.0,30.55,East,91,0.0,0.0,72,0.00,,,0.00,weatherlink.com 1.10,2013-03-26 01:44:00,
2013-03-25 19:59:00,12.3,5.0,30.56,East,91,0.0,0.0,73,0.00,,,0.00,weatherlink.com 1.10,2013-03-26 01:59:00,
2013-03-25 20:14:00,11.2,4.0,30.56,NE,41,0.0,0.0,74,0.00,,,0.00,weatherlink.com 1.10,2013-03-26 02:14:00,
2013-03-25 20:29:00,10.0,4.0,30.57,ENE,67,0.0,0.0,76,0.00,,,0.00,weatherlink.com 1.10,2013-03-26 02:29:00,
2013-03-25 20:45:00,8.8,2.0,30.57,ENE,77,0.0,0.0,75,0.00,,,0.00,weatherlink.com 1.10,2013-03-26 02:45:00,
2013-03-25 21:00:00,7.8,2.0,30.57,ENE,74,0.0,0.0,77,0.00,,,0.00,weatherlink.com 1.10,2013-03-26 03:00:00,
2013-03-25 21:15:00,7.5,3.0,30.57,ENE,77,0.0,0.0,80,0.00,,,0.00,weatherlink.com 1.10,2013-03-26 03:15:00,
2013-03-25 21:30:00,6.5,1.0,30.57,ENE,71,0.0,0.0,78,0.00,,,0.00,weatherlink.com 1.10,2013-03-26 03:30:00,
2013-03-25 21:45:00,5.6,0.0,30.58,ENE,66,0.0,0.0,79,0.00,,,0.00,weatherlink.com 1.10,2013-03-26 03:45:00,
2013-03-25 22:00:00,4.8,0.0,30.58,ENE,58,0.0,0.0,79,0.00,,,0.00,weatherlink.com 1.10,2013-03-26 04:00:00,
2013-03-25 22:15:00,4.2,0.0,30.58,ENE,58,0.0,0.0,81,0.00,,,0.00,weatherlink.com 1.10,2013-03-26 04:15:00,
2013-03-25 22:30:00,3.6,-1.0,30.58,NE,48,0.0,0.0,80,0.00,,,0.00,weatherlink.com 1.10,2013-03-26 04:30:00,
2013-03-25 22:45:00,3.1,-1.0,30.57,ENE,68,0.0,0.0,82,0.00,,,0.00,weatherlink.com 1.10,2013-03-26 04:45:00,
2013-03-25 23:00:00,2.9,-2.0,30.57,ENE,69,0.0,0.0,81,0.00,,,0.00,weatherlink.com 1.10,2013-03-26 05:00:00,
2013-03-25 23:16:00,2.5,-2.0,30.57,NNE,22,0.0,0.0,82,0.00,,,0.00,weatherlink.com 1.10,2013-03-26 05:16:00,
2013-03-25 23:30:00,2.5,-2.0,30.57,ENE,58,0.0,0.0,82,0.00,,,0.00,weatherlink.com 1.10,2013-03-26 05:30:00,
2013-03-25 23:45:00,1.9,-3.0,30.55,NNE,31,0.0,0.0,80,0.00,,,0.00,weatherlink.com 1.10,2013-03-26 05:45:00,